TimeEST,TemperatureF,Dew PointF,Humidity,Sea Level PressureIn,VisibilityMPH,Wind Direction,Wind SpeedMPH,Gust SpeedMPH,PrecipitationIn,Events,Conditions,WindDirDegrees,DateUTC
12:54 AM,33.1,14.0,46,30.44,10.0,NNW,8.1,-,N/A,,Clear,340,2013-11-13 05:54:00
1:54 AM,34.0,15.1,46,30.45,10.0,NNW,12.7,-,N/A,,Clear,340,2013-11-13 06:54:00
2:54 AM,33.1,16.0,50,30.44,10.0,NNW,11.5,-,N/A,,Clear,340,2013-11-13 07:54:00
3:54 AM,32.0,16.0,52,30.44,10.0,NNW,5.8,-,N/A,,Clear,330,2013-11-13 08:54:00
4:54 AM,30.0,16.0,56,30.46,10.0,WNW,4.6,-,N/A,,Clear,300,2013-11-13 09:54:00
5:54 AM,28.9,16.0,58,30.48,10.0,NW,4.6,-,N/A,,Clear,320,2013-11-13 10:54:00
6:54 AM,30.0,16.0,56,30.49,10.0,NW,8.1,-,N/A,,Clear,320,2013-11-13 11:54:00
7:54 AM,33.1,16.0,50,30.51,10.0,NW,9.2,-,N/A,,Clear,320,2013-11-13 12:54:00
8:54 AM,37.0,17.1,44,30.53,10.0,NW,9.2,-,N/A,,Clear,320,2013-11-13 13:54:00
9:54 AM,39.9,15.1,36,30.53,10.0,NNW,17.3,29.9,N/A,,Partly Cloudy,340,2013-11-13 14:54:00
10:54 AM,42.1,15.1,34,30.52,8.0,North,17.3,29.9,N/A,,Scattered Clouds,350,2013-11-13 15:54:00
11:54 AM,43.0,15.1,32,30.50,10.0,NW,12.7,21.9,N/A,,Scattered Clouds,320,2013-11-13 16:54:00
12:54 PM,46.0,15.1,29,30.47,10.0,North,13.8,21.9,N/A,,Partly Cloudy,350,2013-11-13 17:54:00
1:54 PM,46.0,12.9,26,30.46,10.0,NNW,13.8,-,N/A,,Clear,340,2013-11-13 18:54:00
2:54 PM,46.0,14.0,28,30.45,10.0,NNW,10.4,20.7,N/A,,Clear,330,2013-11-13 19:54:00
3:54 PM,45.0,14.0,29,30.46,10.0,NNW,9.2,-,N/A,,Clear,340,2013-11-13 20:54:00
4:54 PM,42.1,15.1,34,30.47,10.0,NNW,5.8,-,N/A,,Partly Cloudy,330,2013-11-13 21:54:00
5:54 PM,39.9,16.0,38,30.48,10.0,Calm,Calm,-,N/A,,Clear,0,2013-11-13 22:54:00
6:54 PM,35.1,17.1,48,30.48,10.0,SSE,3.5,-,N/A,,Clear,150,2013-11-13 23:54:00
7:54 PM,30.0,18.0,61,30.48,10.0,SSE,3.5,-,N/A,,Clear,150,2013-11-14 00:54:00
8:54 PM,32.0,17.1,54,30.48,10.0,Calm,Calm,-,N/A,,Clear,0,2013-11-14 01:54:00
9:54 PM,30.9,19.0,61,30.47,10.0,Calm,Calm,-,N/A,,Clear,0,2013-11-14 02:54:00
10:54 PM,30.9,19.0,61,30.46,10.0,Calm,Calm,-,N/A,,Clear,0,2013-11-14 03:54:00
11:54 PM,30.0,18.0,61,30.45,10.0,Calm,Calm,-,N/A,,Clear,0,2013-11-14 04:54:00